createdAt,value
2023-01-19T00:00:05.438Z,2.40
2023-01-19T00:02:34.064Z,1.88
2023-01-19T00:05:01.804Z,2.97
2023-01-19T00:07:30.270Z,3.03
2023-01-19T00:09:57.540Z,3.05
2023-01-19T00:12:25.116Z,0.77
2023-01-19T00:14:52.366Z,1.20
2023-01-19T00:17:19.609Z,1.00
2023-01-19T00:19:48.156Z,3.60
2023-01-19T00:22:15.484Z,2.17
2023-01-19T00:24:42.793Z,2.17
2023-01-19T00:27:11.214Z,0.93
2023-01-19T00:29:38.738Z,1.10
2023-01-19T00:32:06.709Z,2.28
2023-01-19T00:34:39.388Z,1.27
2023-01-19T00:37:08.231Z,2.65
2023-01-19T00:39:35.514Z,0.63
2023-01-19T00:42:20.263Z,1.85
2023-01-19T00:44:47.481Z,1.23
2023-01-19T00:47:14.710Z,1.98
2023-01-19T00:49:41.959Z,2.05
2023-01-19T00:52:10.857Z,0.55
2023-01-19T00:54:38.449Z,0.65
2023-01-19T00:57:07.779Z,0.40
2023-01-19T00:59:35.015Z,0.40
2023-01-19T01:02:02.744Z,1.20
2023-01-19T01:04:30.330Z,2.33
2023-01-19T01:06:57.585Z,1.00
2023-01-19T01:09:26.324Z,3.85
2023-01-19T01:11:56.628Z,2.38
2023-01-19T01:14:24.557Z,1.38
2023-01-19T01:16:51.911Z,2.97
2023-01-19T01:19:19.374Z,0.95
2023-01-19T01:21:46.662Z,1.42
2023-01-19T01:24:13.944Z,2.50
2023-01-19T01:26:42.560Z,1.75
2023-01-19T01:29:09.848Z,2.30
2023-01-19T01:31:37.233Z,2.35
2023-01-19T01:34:04.803Z,1.30
2023-01-19T01:36:33.347Z,0.40
2023-01-19T01:39:00.913Z,1.48
2023-01-19T01:41:28.227Z,1.35
2023-01-19T01:43:58.449Z,0.82
2023-01-19T01:46:26.562Z,1.35
2023-01-19T01:48:55.750Z,2.22
2023-01-19T01:51:25.455Z,0.93
2023-01-19T01:53:57.969Z,0.40
2023-01-19T01:56:28.141Z,0.75
2023-01-19T01:58:57.002Z,0.50
2023-01-19T02:01:42.107Z,0.30
2023-01-19T02:04:09.885Z,1.50
2023-01-19T02:06:54.846Z,1.25
2023-01-19T02:09:40.811Z,1.02
2023-01-19T02:12:26.018Z,2.17
2023-01-19T02:14:55.492Z,3.10
2023-01-19T02:17:22.880Z,0.50
2023-01-19T02:19:50.142Z,1.40
2023-01-19T02:22:19.454Z,0.93
2023-01-19T02:24:49.727Z,1.38
2023-01-19T02:27:17.230Z,1.55
2023-01-19T02:29:44.602Z,0.82
2023-01-19T02:32:12.791Z,0.63
2023-01-19T02:34:40.080Z,4.00
2023-01-19T02:37:08.527Z,1.92
2023-01-19T02:39:37.199Z,1.73
2023-01-19T02:42:07.149Z,1.85
2023-01-19T02:44:35.879Z,1.48
2023-01-19T02:47:03.130Z,0.73
2023-01-19T02:49:30.845Z,2.15
2023-01-19T02:51:58.639Z,1.33
2023-01-19T02:54:34.560Z,1.25
2023-01-19T02:57:21.277Z,1.63
2023-01-19T02:59:54.664Z,2.92
2023-01-19T03:02:27.925Z,4.13
2023-01-19T03:05:00.581Z,3.47
2023-01-19T03:07:34.362Z,2.35
2023-01-19T03:10:04.791Z,3.38
2023-01-19T03:12:40.660Z,1.35
2023-01-19T03:15:11.543Z,1.33
2023-01-19T03:17:39.498Z,4.07
2023-01-19T03:20:13.184Z,2.70
2023-01-19T03:22:40.547Z,3.13
2023-01-19T03:25:08.524Z,1.30
2023-01-19T03:27:40.857Z,3.92
2023-01-19T03:30:10.172Z,1.13
2023-01-19T03:32:39.114Z,3.15
2023-01-19T03:35:11.892Z,0.50
2023-01-19T03:37:43.306Z,2.95
2023-01-19T03:40:12.177Z,4.22
2023-01-19T03:42:41.695Z,2.10
2023-01-19T03:45:09.984Z,1.48
2023-01-19T03:47:37.303Z,0.60
2023-01-19T03:50:07.330Z,1.67
2023-01-19T03:52:34.648Z,1.42
2023-01-19T03:55:02.745Z,2.33
2023-01-19T03:57:30.163Z,2.90
2023-01-19T03:59:58.761Z,3.40
2023-01-19T04:02:26.183Z,1.73
2023-01-19T04:04:53.459Z,2.65
2023-01-19T04:07:20.791Z,0.63
2023-01-19T04:09:48.043Z,1.50
2023-01-19T04:12:15.586Z,2.28
2023-01-19T04:14:43.030Z,1.77
2023-01-19T04:17:11.899Z,1.85
2023-01-19T04:19:39.184Z,1.88
2023-01-19T04:22:06.551Z,1.63
2023-01-19T04:24:33.897Z,2.65
2023-01-19T04:27:01.284Z,3.28
2023-01-19T04:29:28.742Z,5.13
2023-01-19T04:31:56.243Z,3.13
2023-01-19T04:34:24.893Z,1.10
2023-01-19T04:36:52.666Z,1.30
2023-01-19T04:39:20.216Z,1.02
2023-01-19T04:41:47.590Z,1.42
2023-01-19T04:44:16.159Z,0.70
2023-01-19T04:46:43.483Z,1.90
2023-01-19T04:49:11.160Z,1.38
2023-01-19T04:51:39.926Z,2.13
2023-01-19T04:54:09.095Z,2.38
2023-01-19T04:56:36.595Z,2.60
2023-01-19T04:59:04.041Z,1.65
2023-01-19T05:01:33.766Z,2.40
2023-01-19T05:04:01.356Z,0.70
2023-01-19T05:06:28.661Z,2.65
2023-01-19T05:08:57.257Z,3.33
2023-01-19T05:11:24.627Z,1.65
2023-01-19T05:13:51.910Z,4.15
2023-01-19T05:16:19.253Z,2.20
2023-01-19T05:18:46.515Z,3.03
2023-01-19T05:21:13.758Z,4.07
2023-01-19T05:23:41.300Z,0.77
2023-01-19T05:26:10.474Z,1.80
2023-01-19T05:28:37.967Z,0.98
2023-01-19T05:31:05.642Z,1.90
2023-01-19T05:33:33.020Z,1.27
2023-01-19T05:36:00.409Z,3.15
2023-01-19T05:38:35.327Z,0.75
2023-01-19T05:41:03.318Z,2.05
2023-01-19T05:43:32.079Z,2.50
2023-01-19T05:45:59.656Z,3.58
2023-01-19T05:48:27.195Z,1.30
2023-01-19T05:50:58.212Z,1.02
2023-01-19T05:53:25.799Z,2.80
2023-01-19T05:55:53.079Z,1.42
2023-01-19T05:58:20.485Z,2.92
2023-01-19T06:00:49.119Z,1.67
2023-01-19T06:03:16.584Z,1.95
2023-01-19T06:05:43.856Z,2.13
2023-01-19T06:08:11.178Z,2.72
2023-01-19T06:10:38.473Z,0.70
2023-01-19T06:13:05.945Z,3.47
2023-01-19T06:15:33.183Z,0.88
2023-01-19T06:18:01.765Z,1.73
2023-01-19T06:20:29.114Z,0.40
2023-01-19T06:22:57.563Z,1.40
2023-01-19T06:25:25.916Z,0.43
2023-01-19T06:27:55.547Z,1.58
2023-01-19T06:30:22.912Z,1.52
2023-01-19T06:32:50.181Z,2.22
2023-01-19T06:35:19.235Z,0.38
2023-01-19T06:37:46.529Z,0.68
2023-01-19T06:40:14.609Z,1.27
2023-01-19T06:42:42.161Z,0.90
2023-01-19T06:45:10.582Z,2.63
2023-01-19T06:47:37.832Z,2.55
2023-01-19T06:50:05.397Z,2.25
2023-01-19T06:52:34.676Z,3.05
2023-01-19T06:55:01.907Z,1.10
2023-01-19T06:57:29.206Z,2.97
2023-01-19T06:59:59.104Z,2.35
2023-01-19T07:02:28.591Z,1.80
2023-01-19T07:04:56.354Z,1.40
2023-01-19T07:07:23.648Z,3.05
2023-01-19T07:09:53.968Z,3.85
2023-01-19T07:12:21.492Z,1.15
2023-01-19T07:14:49.352Z,0.65
2023-01-19T07:17:16.622Z,0.95
2023-01-19T07:19:43.876Z,0.75
2023-01-19T07:22:11.102Z,2.35
2023-01-19T07:24:38.424Z,2.97
2023-01-19T07:27:07.014Z,1.90
2023-01-19T07:29:34.252Z,2.78
2023-01-19T07:32:01.492Z,2.40
2023-01-19T07:34:29.444Z,4.22
2023-01-19T07:36:56.969Z,3.53
2023-01-19T07:39:24.503Z,1.83
2023-01-19T07:41:51.788Z,2.38
2023-01-19T07:44:20.452Z,3.28
2023-01-19T07:46:47.975Z,1.42
2023-01-19T07:49:16.432Z,2.08
2023-01-19T07:51:43.647Z,1.92
2023-01-19T07:54:12.103Z,1.50
2023-01-19T07:56:39.351Z,1.63
2023-01-19T07:59:09.488Z,2.15
2023-01-19T08:01:38.149Z,2.55
2023-01-19T08:04:05.693Z,2.90
2023-01-19T08:06:34.225Z,1.85
2023-01-19T08:09:01.524Z,5.68
2023-01-19T08:11:29.107Z,3.42
2023-01-19T08:13:56.343Z,4.43
2023-01-19T08:16:24.867Z,5.18
2023-01-19T08:18:53.428Z,3.53
2023-01-19T08:21:20.732Z,1.65
2023-01-19T08:23:52.575Z,4.80
2023-01-19T08:26:20.237Z,1.30
2023-01-19T08:28:47.744Z,1.60
2023-01-19T08:31:21.200Z,1.75
2023-01-19T08:33:49.741Z,0.45
2023-01-19T08:36:18.615Z,2.78
2023-01-19T08:38:45.863Z,2.72
2023-01-19T08:41:13.428Z,5.95
2023-01-19T08:43:40.764Z,3.25
2023-01-19T08:46:08.068Z,3.90
2023-01-19T08:48:35.336Z,3.78
2023-01-19T08:51:02.839Z,1.95
2023-01-19T08:53:31.396Z,0.75
2023-01-19T08:55:59.930Z,2.45
2023-01-19T08:58:27.329Z,1.08
2023-01-19T09:00:54.731Z,1.05
2023-01-19T09:03:22.581Z,0.60
2023-01-19T09:05:50.298Z,2.63
2023-01-19T09:08:17.765Z,0.60
2023-01-19T09:10:47.957Z,2.35
2023-01-19T09:13:15.544Z,0.85
2023-01-19T09:15:44.012Z,1.08
2023-01-19T09:18:13.614Z,1.13
2023-01-19T09:20:42.525Z,1.50
2023-01-19T09:23:11.410Z,0.30
2023-01-19T09:25:39.044Z,0.95
2023-01-19T09:28:10.839Z,1.33
2023-01-19T09:30:39.466Z,0.30
2023-01-19T09:33:07.421Z,0.63
2023-01-19T09:35:36.792Z,1.83
2023-01-19T09:38:04.279Z,0.60
2023-01-19T09:40:31.639Z,0.55
2023-01-19T09:43:04.957Z,2.80
2023-01-19T09:45:35.524Z,1.70
2023-01-19T09:48:05.622Z,1.85
2023-01-19T09:50:35.154Z,0.30
2023-01-19T09:53:07.279Z,1.23
2023-01-19T09:55:34.748Z,0.43
2023-01-19T09:58:02.400Z,0.60
2023-01-19T10:00:30.786Z,0.60
2023-01-19T10:03:02.427Z,1.50
2023-01-19T10:05:31.516Z,0.95
2023-01-19T10:08:06.036Z,1.80
2023-01-19T10:10:33.870Z,0.77
2023-01-19T10:13:05.383Z,1.42
2023-01-19T10:15:38.775Z,1.15
2023-01-19T10:18:13.075Z,1.65
2023-01-19T10:20:42.896Z,0.75
2023-01-19T10:23:19.122Z,1.48
2023-01-19T10:25:47.933Z,0.50
2023-01-19T10:28:16.184Z,1.35
2023-01-19T10:30:45.377Z,0.30
2023-01-19T10:33:15.273Z,0.60
2023-01-19T10:35:42.793Z,0.30
2023-01-19T10:38:12.811Z,0.22
2023-01-19T10:40:43.912Z,0.30
2023-01-19T10:43:30.113Z,0.43
2023-01-19T10:45:57.663Z,0.95
2023-01-19T10:48:26.337Z,0.43
2023-01-19T10:51:02.174Z,0.30
2023-01-19T10:53:29.855Z,0.80
2023-01-19T10:56:10.400Z,0.40
2023-01-19T10:58:37.931Z,1.38
2023-01-19T11:01:13.539Z,0.80
2023-01-19T11:03:42.539Z,0.30
2023-01-19T11:06:28.192Z,1.75
2023-01-19T11:09:12.781Z,0.90
2023-01-19T11:11:46.286Z,1.15
2023-01-19T11:14:14.807Z,2.50
2023-01-19T11:16:45.917Z,0.88
2023-01-19T11:19:20.078Z,1.20
2023-01-19T11:21:47.496Z,1.35
2023-01-19T11:24:16.510Z,0.90
2023-01-19T11:26:45.308Z,1.75
2023-01-19T11:29:17.477Z,1.42
2023-01-19T11:31:45.193Z,1.17
2023-01-19T11:34:31.130Z,1.52
2023-01-19T11:37:01.993Z,0.95
2023-01-19T11:39:30.006Z,2.17
2023-01-19T11:41:58.708Z,1.67
2023-01-19T11:44:28.514Z,1.35
2023-01-19T11:46:57.379Z,1.92
2023-01-19T11:49:28.908Z,1.98
2023-01-19T11:52:00.600Z,0.65
2023-01-19T11:54:31.579Z,0.52
2023-01-19T11:56:59.825Z,1.17
2023-01-19T11:59:27.280Z,2.00
2023-01-19T12:01:57.717Z,1.10
2023-01-19T12:04:27.524Z,0.50
2023-01-19T12:06:55.899Z,1.63
2023-01-19T12:09:25.480Z,0.20
2023-01-19T12:11:56.051Z,0.57
2023-01-19T12:14:26.636Z,1.00
2023-01-19T12:16:55.930Z,0.88
2023-01-19T12:19:26.009Z,1.23
2023-01-19T12:21:53.608Z,1.05
2023-01-19T12:24:30.112Z,1.70
2023-01-19T12:26:59.709Z,0.95
2023-01-19T12:29:28.867Z,2.47
2023-01-19T12:32:16.450Z,2.63
2023-01-19T12:34:44.978Z,1.35
2023-01-19T12:37:27.168Z,3.03
2023-01-19T12:39:55.080Z,3.22
2023-01-19T12:42:23.764Z,1.05
2023-01-19T12:45:06.594Z,3.55
2023-01-19T12:47:34.231Z,3.85
2023-01-19T12:50:06.935Z,3.55
2023-01-19T12:52:35.737Z,3.85
2023-01-19T12:55:07.095Z,5.32
2023-01-19T12:57:36.844Z,5.00
2023-01-19T13:00:05.596Z,4.55
2023-01-19T13:02:50.835Z,6.55
2023-01-19T13:05:25.769Z,5.72
2023-01-19T13:08:12.521Z,5.95
2023-01-19T13:11:10.627Z,2.85
2023-01-19T13:13:39.980Z,2.60
2023-01-19T13:16:22.369Z,2.90
2023-01-19T13:18:51.309Z,6.68
2023-01-19T13:21:27.210Z,3.33
2023-01-19T13:23:55.436Z,5.30
2023-01-19T13:26:23.443Z,4.60
2023-01-19T13:28:54.679Z,3.42
2023-01-19T13:31:22.578Z,5.13
2023-01-19T13:33:51.109Z,4.40
2023-01-19T13:36:24.759Z,5.47
2023-01-19T13:38:52.512Z,2.13
2023-01-19T13:41:21.584Z,2.55
2023-01-19T13:43:50.108Z,3.30
2023-01-19T13:46:19.325Z,5.20
2023-01-19T13:48:53.875Z,2.60
2023-01-19T13:51:21.338Z,2.90
2023-01-19T13:53:54.772Z,4.03
2023-01-19T13:56:24.392Z,5.43
2023-01-19T13:59:10.959Z,4.55
2023-01-19T14:01:40.996Z,2.97
2023-01-19T14:04:23.442Z,5.47
2023-01-19T14:06:54.117Z,4.70
2023-01-19T14:09:21.396Z,4.15
2023-01-19T14:12:04.998Z,3.83
2023-01-19T14:14:33.552Z,2.15
2023-01-19T14:17:02.262Z,1.85
2023-01-19T14:19:29.789Z,3.05
2023-01-19T14:22:01.181Z,2.95
2023-01-19T14:24:30.740Z,6.18
2023-01-19T14:27:11.526Z,3.35
2023-01-19T14:29:38.996Z,4.78
2023-01-19T14:32:12.688Z,3.90
2023-01-19T14:34:41.226Z,2.95
2023-01-19T14:37:18.104Z,2.90
2023-01-19T14:39:45.873Z,2.80
2023-01-19T14:42:17.457Z,3.85
2023-01-19T14:44:48.006Z,2.45
2023-01-19T14:47:26.370Z,4.68
2023-01-19T14:49:54.332Z,3.72
2023-01-19T14:52:22.611Z,3.17
2023-01-19T14:54:50.211Z,3.83
2023-01-19T14:57:17.498Z,3.78
2023-01-19T14:59:48.364Z,3.30
2023-01-19T15:02:17.935Z,3.88
2023-01-19T15:05:03.827Z,3.00
2023-01-19T15:07:32.200Z,5.20
2023-01-19T15:10:00.148Z,6.80
2023-01-19T15:12:28.645Z,2.45
2023-01-19T15:14:57.415Z,3.55
2023-01-19T15:17:26.098Z,1.58
2023-01-19T15:19:54.076Z,5.00
2023-01-19T15:22:23.218Z,2.38
2023-01-19T15:24:50.649Z,4.35
2023-01-19T15:27:25.330Z,4.65
2023-01-19T15:29:52.881Z,2.53
2023-01-19T15:32:20.191Z,1.65
2023-01-19T15:34:47.465Z,3.10
2023-01-19T15:37:14.716Z,0.40
2023-01-19T15:39:43.318Z,1.60
2023-01-19T15:42:11.499Z,0.88
2023-01-19T15:44:39.040Z,1.30
2023-01-19T15:47:06.361Z,0.90
2023-01-19T15:49:33.633Z,2.58
2023-01-19T15:52:00.895Z,4.18
2023-01-19T15:54:28.226Z,2.83
2023-01-19T15:56:56.912Z,2.45
2023-01-19T15:59:25.922Z,2.28
2023-01-19T16:01:54.670Z,4.85
2023-01-19T16:04:22.053Z,4.72
2023-01-19T16:06:50.419Z,5.60
2023-01-19T16:09:19.986Z,2.13
2023-01-19T16:11:49.206Z,5.63
2023-01-19T16:14:17.911Z,2.45
2023-01-19T16:16:46.089Z,5.47
2023-01-19T16:19:14.643Z,0.25
2023-01-19T16:21:42.787Z,6.93
2023-01-19T16:24:10.109Z,5.20
2023-01-19T16:26:37.417Z,4.35
2023-01-19T16:29:08.996Z,4.32
2023-01-19T16:31:37.739Z,5.65
2023-01-19T16:34:05.138Z,4.30
2023-01-19T16:36:33.226Z,7.78
2023-01-19T16:39:01.015Z,3.95
2023-01-19T16:41:28.597Z,6.13
2023-01-19T16:43:56.828Z,10.10
2023-01-19T16:46:24.674Z,5.47
2023-01-19T16:48:53.457Z,4.35
2023-01-19T16:51:22.898Z,6.80
2023-01-19T16:53:50.612Z,8.98
2023-01-19T16:56:18.188Z,2.13
2023-01-19T16:58:45.491Z,3.90
2023-01-19T17:01:14.580Z,7.00
2023-01-19T17:03:42.266Z,4.68
2023-01-19T17:06:11.668Z,6.22
2023-01-19T17:08:39.080Z,2.65
2023-01-19T17:11:09.940Z,4.57
2023-01-19T17:13:37.909Z,2.65
2023-01-19T17:16:05.769Z,3.17
2023-01-19T17:18:33.992Z,2.65
2023-01-19T17:21:01.395Z,6.75
2023-01-19T17:23:30.073Z,0.85
2023-01-19T17:25:57.753Z,0.40
2023-01-19T17:28:25.141Z,3.42
2023-01-19T17:30:52.506Z,3.10
2023-01-19T17:33:19.795Z,4.95
2023-01-19T17:35:47.083Z,4.82
2023-01-19T17:38:14.675Z,6.93
2023-01-19T17:40:43.306Z,9.27
2023-01-19T17:43:10.553Z,7.82
2023-01-19T17:45:38.247Z,8.60
2023-01-19T17:48:05.605Z,6.43
2023-01-19T17:50:34.408Z,8.35
2023-01-19T17:53:01.735Z,9.55
2023-01-19T17:55:29.041Z,8.98
2023-01-19T17:57:59.626Z,10.95
2023-01-19T18:00:27.825Z,4.80
2023-01-19T18:02:55.210Z,6.10
2023-01-19T18:05:23.896Z,4.18
2023-01-19T18:07:51.157Z,6.65
2023-01-19T18:10:18.476Z,8.00
2023-01-19T18:12:45.713Z,7.63
2023-01-19T18:15:16.699Z,5.75
2023-01-19T18:17:44.170Z,8.68
2023-01-19T18:20:12.514Z,4.72
2023-01-19T18:22:40.003Z,10.15
2023-01-19T18:25:07.485Z,6.35
2023-01-19T18:27:34.921Z,6.57
2023-01-19T18:30:02.204Z,9.73
2023-01-19T18:32:30.776Z,5.57
2023-01-19T18:34:58.015Z,6.45
2023-01-19T18:37:25.246Z,7.63
2023-01-19T18:39:54.958Z,5.80
2023-01-19T18:42:22.219Z,1.92
2023-01-19T18:44:49.460Z,6.57
2023-01-19T18:47:16.687Z,8.65
2023-01-19T18:49:45.276Z,3.78
2023-01-19T18:52:12.525Z,1.90
2023-01-19T18:54:39.753Z,5.45
2023-01-19T18:57:06.980Z,5.80
2023-01-19T18:59:34.352Z,6.00
2023-01-19T19:02:01.688Z,3.13
2023-01-19T19:04:29.279Z,6.28
2023-01-19T19:06:57.840Z,2.45
2023-01-19T19:09:25.106Z,5.57
2023-01-19T19:11:52.359Z,0.60
2023-01-19T19:14:19.951Z,0.73
2023-01-19T19:16:47.206Z,0.60
2023-01-19T19:19:15.358Z,3.78
2023-01-19T19:21:42.886Z,3.38
2023-01-19T19:24:13.282Z,9.32
2023-01-19T19:26:41.902Z,5.28
2023-01-19T19:29:09.189Z,1.67
2023-01-19T19:31:36.532Z,8.23
2023-01-19T19:34:03.869Z,4.47
2023-01-19T19:36:31.653Z,7.97
2023-01-19T19:38:59.743Z,3.30
2023-01-19T19:41:28.837Z,2.95
2023-01-19T19:43:56.534Z,3.75
2023-01-19T19:46:24.956Z,3.47
2023-01-19T19:48:52.863Z,4.15
2023-01-19T19:51:22.463Z,8.77
2023-01-19T19:53:51.789Z,6.18
2023-01-19T19:56:20.899Z,8.27
2023-01-19T19:58:50.078Z,9.57
2023-01-19T20:01:18.585Z,6.47
2023-01-19T20:03:45.949Z,4.43
2023-01-19T20:06:14.364Z,4.57
2023-01-19T20:08:41.641Z,5.65
2023-01-19T20:11:09.714Z,6.95
2023-01-19T20:13:38.369Z,5.55
2023-01-19T20:16:09.994Z,5.93
2023-01-19T20:18:37.596Z,6.05
2023-01-19T20:21:11.248Z,6.65
2023-01-19T20:23:38.480Z,4.97
2023-01-19T20:26:06.070Z,5.32
2023-01-19T20:28:33.475Z,4.97
2023-01-19T20:31:09.814Z,7.13
2023-01-19T20:33:37.388Z,7.85
2023-01-19T20:36:04.737Z,8.00
2023-01-19T20:38:32.180Z,9.43
2023-01-19T20:40:59.497Z,8.52
2023-01-19T20:43:26.741Z,6.40
2023-01-19T20:45:54.035Z,6.53
2023-01-19T20:48:22.636Z,12.02
2023-01-19T20:50:50.053Z,10.00
2023-01-19T20:53:17.421Z,4.60
2023-01-19T20:55:44.679Z,14.52
2023-01-19T20:58:12.179Z,9.18
2023-01-19T21:00:40.645Z,8.07
2023-01-19T21:03:07.952Z,7.13
2023-01-19T21:05:36.522Z,6.13
2023-01-19T21:08:03.814Z,7.50
2023-01-19T21:10:31.397Z,5.13
2023-01-19T21:12:58.911Z,10.48
2023-01-19T21:15:26.200Z,10.52
2023-01-19T21:17:53.529Z,8.93
2023-01-19T21:20:20.880Z,10.60
2023-01-19T21:22:49.471Z,8.57
2023-01-19T21:25:16.734Z,10.70
2023-01-19T21:27:43.976Z,7.57
2023-01-19T21:30:11.768Z,9.48
2023-01-19T21:32:40.927Z,10.75
2023-01-19T21:35:08.562Z,7.05
2023-01-19T21:37:35.830Z,3.88
2023-01-19T21:40:04.888Z,11.02
2023-01-19T21:42:32.123Z,9.50
2023-01-19T21:44:59.349Z,7.70
2023-01-19T21:47:26.593Z,4.88
2023-01-19T21:49:53.838Z,7.93
2023-01-19T21:52:21.188Z,6.20
2023-01-19T21:54:48.413Z,7.07
2023-01-19T21:57:19.510Z,8.13
2023-01-19T21:59:46.763Z,5.00
2023-01-19T22:02:14.120Z,7.47
2023-01-19T22:04:41.544Z,5.70
2023-01-19T22:07:08.786Z,6.65
2023-01-19T22:09:36.111Z,5.45
2023-01-19T22:12:03.663Z,5.53
2023-01-19T22:14:32.220Z,6.68
2023-01-19T22:16:59.503Z,5.45
2023-01-19T22:19:26.753Z,5.97
2023-01-19T22:21:54.018Z,6.20
2023-01-19T22:24:21.338Z,6.25
2023-01-19T22:26:48.549Z,6.32
2023-01-19T22:29:15.830Z,6.90
2023-01-19T22:31:45.690Z,6.25
2023-01-19T22:34:13.502Z,7.07
2023-01-19T22:36:40.769Z,11.40
2023-01-19T22:39:09.374Z,8.27
2023-01-19T22:41:37.686Z,7.85
2023-01-19T22:44:05.986Z,7.40
2023-01-19T22:46:34.887Z,6.20
2023-01-19T22:49:03.854Z,6.18
2023-01-19T22:51:31.577Z,6.07
2023-01-19T22:53:59.606Z,4.95
2023-01-19T22:56:27.762Z,6.82
2023-01-19T22:58:55.126Z,4.07
2023-01-19T23:01:25.948Z,3.60
2023-01-19T23:03:53.927Z,7.82
2023-01-19T23:06:23.266Z,8.48
2023-01-19T23:08:50.919Z,4.03
2023-01-19T23:11:19.331Z,4.97
2023-01-19T23:13:46.917Z,9.32
2023-01-19T23:16:14.188Z,6.53
2023-01-19T23:18:42.175Z,5.65
2023-01-19T23:21:10.396Z,7.85
2023-01-19T23:23:39.320Z,4.47
2023-01-19T23:26:07.836Z,5.90
2023-01-19T23:28:36.506Z,5.53
2023-01-19T23:31:14.276Z,6.47
2023-01-19T23:33:43.910Z,1.90
2023-01-19T23:36:11.421Z,5.20
2023-01-19T23:38:40.134Z,5.70
2023-01-19T23:41:07.555Z,5.53
2023-01-19T23:43:34.789Z,10.00
2023-01-19T23:46:03.474Z,8.75
2023-01-19T23:48:33.269Z,9.90
2023-01-19T23:51:00.531Z,7.70
2023-01-19T23:53:27.784Z,5.45
2023-01-19T23:55:56.342Z,5.20
2023-01-19T23:58:23.562Z,7.88
